sensor_id;sensor_type;location;lat;lon;timestamp;pressure;altitude;pressure_sealevel;temperature;humidity
42859;BME280;28505;56.970;40.998;2023-02-11T00:00:20;99484.00;;;-3.00;100.00
42859;BME280;28505;56.970;40.998;2023-02-11T00:05:42;99489.91;;;-3.05;100.00
42859;BME280;28505;56.970;40.998;2023-02-11T00:11:05;99451.59;;;-3.33;100.00
42859;BME280;28505;56.970;40.998;2023-02-11T00:16:28;99479.34;;;-3.05;100.00
42859;BME280;28505;56.970;40.998;2023-02-11T00:21:50;99465.75;;;-3.02;100.00
42859;BME280;28505;56.970;40.998;2023-02-11T00:27:12;99477.56;;;-2.86;100.00
42859;BME280;28505;56.970;40.998;2023-02-11T00:32:38;99487.44;;;-2.82;100.00
42859;BME280;28505;56.970;40.998;2023-02-11T00:38:06;99430.34;;;-3.13;100.00
42859;BME280;28505;56.970;40.998;2023-02-11T00:43:28;99475.91;;;-2.80;100.00
42859;BME280;28505;56.970;40.998;2023-02-11T00:48:51;99478.25;;;-2.72;100.00
42859;BME280;28505;56.970;40.998;2023-02-11T00:54:15;99449.53;;;-2.80;100.00
42859;BME280;28505;56.970;40.998;2023-02-11T00:59:37;99455.09;;;-2.70;100.00
42859;BME280;28505;56.970;40.998;2023-02-11T01:05:00;99452.81;;;-2.67;100.00
42859;BME280;28505;56.970;40.998;2023-02-11T01:10:22;99452.59;;;-2.65;100.00
42859;BME280;28505;56.970;40.998;2023-02-11T01:15:46;99451.72;;;-2.59;100.00
42859;BME280;28505;56.970;40.998;2023-02-11T01:21:11;99459.34;;;-2.51;100.00
42859;BME280;28505;56.970;40.998;2023-02-11T01:26:33;99476.44;;;-2.35;100.00
42859;BME280;28505;56.970;40.998;2023-02-11T01:31:56;99473.81;;;-2.35;100.00
42859;BME280;28505;56.970;40.998;2023-02-11T01:37:18;99472.09;;;-2.29;100.00
42859;BME280;28505;56.970;40.998;2023-02-11T01:42:41;99460.53;;;-2.28;100.00
42859;BME280;28505;56.970;40.998;2023-02-11T01:48:04;99459.84;;;-2.24;100.00
42859;BME280;28505;56.970;40.998;2023-02-11T01:53:28;99465.28;;;-2.19;100.00
42859;BME280;28505;56.970;40.998;2023-02-11T01:59:18;99455.81;;;-2.26;100.00
42859;BME280;28505;56.970;40.998;2023-02-11T02:04:59;99470.69;;;-2.14;100.00
42859;BME280;28505;56.970;40.998;2023-02-11T02:10:34;99486.53;;;-2.14;100.00
42859;BME280;28505;56.970;40.998;2023-02-11T02:16:04;99511.91;;;-1.94;100.00
42859;BME280;28505;56.970;40.998;2023-02-11T02:22:44;99514.91;;;-1.91;100.00
42859;BME280;28505;56.970;40.998;2023-02-11T02:39:29;99491.63;;;-2.12;100.00
42859;BME280;28505;56.970;40.998;2023-02-11T02:44:55;99480.97;;;-2.24;100.00
42859;BME280;28505;56.970;40.998;2023-02-11T02:50:22;99515.31;;;-2.05;100.00
42859;BME280;28505;56.970;40.998;2023-02-11T02:56:13;99533.41;;;-1.91;100.00
42859;BME280;28505;56.970;40.998;2023-02-11T03:02:17;99530.19;;;-1.93;100.00
42859;BME280;28505;56.970;40.998;2023-02-11T03:08:26;99508.38;;;-2.06;100.00
42859;BME280;28505;56.970;40.998;2023-02-11T03:13:40;99519.72;;;-1.99;100.00
42859;BME280;28505;56.970;40.998;2023-02-11T03:19:21;99498.75;;;-2.13;100.00
42859;BME280;28505;56.970;40.998;2023-02-11T03:24:48;99513.31;;;-2.10;100.00
42859;BME280;28505;56.970;40.998;2023-02-11T03:30:15;99509.22;;;-2.06;100.00
42859;BME280;28505;56.970;40.998;2023-02-11T03:36:17;99514.88;;;-2.02;100.00
42859;BME280;28505;56.970;40.998;2023-02-11T03:41:46;99528.00;;;-1.96;100.00
42859;BME280;28505;56.970;40.998;2023-02-11T03:47:13;99508.47;;;-2.13;100.00
42859;BME280;28505;56.970;40.998;2023-02-11T03:52:38;99528.56;;;-1.94;100.00
42859;BME280;28505;56.970;40.998;2023-02-11T03:58:01;99531.00;;;-1.92;100.00
42859;BME280;28505;56.970;40.998;2023-02-11T04:03:23;99528.56;;;-1.94;100.00
42859;BME280;28505;56.970;40.998;2023-02-11T04:08:45;99529.16;;;-1.92;100.00
42859;BME280;28505;56.970;40.998;2023-02-11T04:14:07;99519.72;;;-1.99;100.00
42859;BME280;28505;56.970;40.998;2023-02-11T04:19:29;99533.84;;;-1.94;100.00
42859;BME280;28505;56.970;40.998;2023-02-11T04:24:51;99528.56;;;-1.94;100.00
42859;BME280;28505;56.970;40.998;2023-02-11T04:30:13;99536.63;;;-1.89;100.00
42859;BME280;28505;56.970;40.998;2023-02-11T04:35:35;99524.91;;;-1.93;100.00
42859;BME280;28505;56.970;40.998;2023-02-11T04:40:57;99526.16;;;-1.95;100.00
42859;BME280;28505;56.970;40.998;2023-02-11T04:46:21;99542.72;;;-1.88;100.00
42859;BME280;28505;56.970;40.998;2023-02-11T04:51:43;99540.69;;;-1.86;100.00
42859;BME280;28505;56.970;40.998;2023-02-11T04:57:09;99551.16;;;-1.79;100.00
42859;BME280;28505;56.970;40.998;2023-02-11T05:02:31;99557.00;;;-1.77;100.00
42859;BME280;28505;56.970;40.998;2023-02-11T05:07:53;99560.25;;;-1.75;100.00
42859;BME280;28505;56.970;40.998;2023-02-11T05:13:15;99544.25;;;-1.80;100.00
42859;BME280;28505;56.970;40.998;2023-02-11T05:18:38;99560.38;;;-1.70;100.00
42859;BME280;28505;56.970;40.998;2023-02-11T05:24:00;99531.34;;;-1.89;100.00
42859;BME280;28505;56.970;40.998;2023-02-11T05:29:22;99555.09;;;-1.70;100.00
42859;BME280;28505;56.970;40.998;2023-02-11T05:34:44;99576.09;;;-1.57;100.00
42859;BME280;28505;56.970;40.998;2023-02-11T05:40:07;99580.91;;;-1.54;100.00
42859;BME280;28505;56.970;40.998;2023-02-11T05:45:30;99588.19;;;-1.49;100.00
42859;BME280;28505;56.970;40.998;2023-02-11T05:50:52;99575.91;;;-1.44;100.00
42859;BME280;28505;56.970;40.998;2023-02-11T05:56:16;99578.78;;;-1.45;100.00
42859;BME280;28505;56.970;40.998;2023-02-11T06:01:37;99576.03;;;-1.38;100.00
42859;BME280;28505;56.970;40.998;2023-02-11T06:06:59;99582.63;;;-1.29;100.00
42859;BME280;28505;56.970;40.998;2023-02-11T06:12:21;99592.31;;;-1.23;100.00
42859;BME280;28505;56.970;40.998;2023-02-11T06:17:43;99589.22;;;-1.20;100.00
42859;BME280;28505;56.970;40.998;2023-02-11T06:23:05;99591.88;;;-1.20;100.00
42859;BME280;28505;56.970;40.998;2023-02-11T06:28:28;99602.34;;;-1.13;100.00
42859;BME280;28505;56.970;40.998;2023-02-11T06:33:51;99608.63;;;-0.96;100.00
42859;BME280;28505;56.970;40.998;2023-02-11T06:39:15;99616.84;;;-0.74;100.00
42859;BME280;28505;56.970;40.998;2023-02-11T06:44:37;99615.34;;;-0.70;100.00
42859;BME280;28505;56.970;40.998;2023-02-11T06:49:59;99622.13;;;-0.74;100.00
42859;BME280;28505;56.970;40.998;2023-02-11T06:55:23;99603.66;;;-0.92;100.00
42859;BME280;28505;56.970;40.998;2023-02-11T07:00:47;99613.25;;;-0.91;100.00
42859;BME280;28505;56.970;40.998;2023-02-11T07:06:15;99649.16;;;-0.72;100.00
42859;BME280;28505;56.970;40.998;2023-02-11T07:11:38;99651.59;;;-0.71;100.00
42859;BME280;28505;56.970;40.998;2023-02-11T07:17:01;99648.94;;;-0.71;100.00
42859;BME280;28505;56.970;40.998;2023-02-11T07:22:25;99653.00;;;-0.68;100.00
42859;BME280;28505;56.970;40.998;2023-02-11T07:27:51;99613.91;;;-0.96;100.00
42859;BME280;28505;56.970;40.998;2023-02-11T07:33:13;99644.16;;;-0.50;100.00
42859;BME280;28505;56.970;40.998;2023-02-11T07:38:36;99618.72;;;-0.39;100.00
42859;BME280;28505;56.970;40.998;2023-02-11T07:44:01;99618.72;;;-0.16;100.00
42859;BME280;28505;56.970;40.998;2023-02-11T07:49:24;99650.94;;;0.28;100.00
42859;BME280;28505;56.970;40.998;2023-02-11T07:54:47;99643.91;;;0.34;100.00
42859;BME280;28505;56.970;40.998;2023-02-11T08:00:10;99634.78;;;0.41;100.00
42859;BME280;28505;56.970;40.998;2023-02-11T08:05:32;99635.25;;;0.38;100.00
42859;BME280;28505;56.970;40.998;2023-02-11T08:10:54;99653.88;;;0.55;100.00
42859;BME280;28505;56.970;40.998;2023-02-11T08:16:28;99656.88;;;0.59;100.00
42859;BME280;28505;56.970;40.998;2023-02-11T08:21:54;99647.56;;;0.56;97.87
42859;BME280;28505;56.970;40.998;2023-02-11T08:27:17;99651.81;;;0.45;100.00
42859;BME280;28505;56.970;40.998;2023-02-11T08:32:39;99643.19;;;0.38;99.42
42859;BME280;28505;56.970;40.998;2023-02-11T08:38:02;99640.13;;;0.30;95.37
42859;BME280;28505;56.970;40.998;2023-02-11T08:43:24;99620.88;;;0.22;93.70
42859;BME280;28505;56.970;40.998;2023-02-11T08:48:46;99641.59;;;0.26;89.88
42859;BME280;28505;56.970;40.998;2023-02-11T08:54:09;99623.66;;;0.04;89.87
42859;BME280;28505;56.970;40.998;2023-02-11T08:59:31;99638.78;;;0.04;91.38
42859;BME280;28505;56.970;40.998;2023-02-11T09:04:53;99633.13;;;-0.12;94.15
42859;BME280;28505;56.970;40.998;2023-02-11T09:10:16;99627.38;;;-0.09;94.28
42859;BME280;28505;56.970;40.998;2023-02-11T09:15:38;99613.66;;;-0.06;93.24
42859;BME280;28505;56.970;40.998;2023-02-11T09:21:02;99599.38;;;-0.05;100.00
42859;BME280;28505;56.970;40.998;2023-02-11T09:26:26;99598.75;;;0.17;100.00
42859;BME280;28505;56.970;40.998;2023-02-11T09:31:49;99578.16;;;0.07;100.00
42859;BME280;28505;56.970;40.998;2023-02-11T09:37:12;99592.53;;;0.23;100.00
42859;BME280;28505;56.970;40.998;2023-02-11T09:48:24;99564.38;;;0.34;94.46
42859;BME280;28505;56.970;40.998;2023-02-11T09:53:48;99576.63;;;0.52;96.01
42859;BME280;28505;56.970;40.998;2023-02-11T09:59:15;99579.94;;;0.59;94.43
42859;BME280;28505;56.970;40.998;2023-02-11T10:05:06;99583.84;;;0.39;92.85
42859;BME280;28505;56.970;40.998;2023-02-11T10:10:50;99573.19;;;0.11;93.95
42859;BME280;28505;56.970;40.998;2023-02-11T10:22:28;99573.69;;;-0.16;97.17
42859;BME280;28505;56.970;40.998;2023-02-11T10:27:55;99582.19;;;-0.02;99.78
42859;BME280;28505;56.970;40.998;2023-02-11T10:33:27;99559.66;;;-0.28;99.39
42859;BME280;28505;56.970;40.998;2023-02-11T10:38:51;99566.78;;;-0.29;100.00
42859;BME280;28505;56.970;40.998;2023-02-11T10:44:26;99564.34;;;-0.30;100.00
42859;BME280;28505;56.970;40.998;2023-02-11T10:49:52;99570.13;;;-0.33;100.00
42859;BME280;28505;56.970;40.998;2023-02-11T10:55:46;99566.56;;;-0.39;100.00
42859;BME280;28505;56.970;40.998;2023-02-11T11:01:11;99559.41;;;-0.50;100.00
42859;BME280;28505;56.970;40.998;2023-02-11T11:06:45;99549.41;;;-0.60;100.00
42859;BME280;28505;56.970;40.998;2023-02-11T11:18:16;99518.53;;;-0.89;100.00
42859;BME280;28505;56.970;40.998;2023-02-11T11:23:51;99538.81;;;-0.83;100.00
42859;BME280;28505;56.970;40.998;2023-02-11T11:29:16;99544.34;;;-0.73;100.00
42859;BME280;28505;56.970;40.998;2023-02-11T11:34:42;99531.66;;;-0.95;100.00
42859;BME280;28505;56.970;40.998;2023-02-11T11:45:38;99531.06;;;-0.97;100.00
42859;BME280;28505;56.970;40.998;2023-02-11T11:51:04;99517.25;;;-0.99;100.00
42859;BME280;28505;56.970;40.998;2023-02-11T11:56:32;99482.06;;;-1.11;100.00
42859;BME280;28505;56.970;40.998;2023-02-11T12:13:15;99500.25;;;-0.91;100.00
42859;BME280;28505;56.970;40.998;2023-02-11T12:30:40;99486.91;;;-0.96;100.00
42859;BME280;28505;56.970;40.998;2023-02-11T12:36:31;99471.84;;;-1.07;100.00
42859;BME280;28505;56.970;40.998;2023-02-11T12:42:15;99461.69;;;-0.99;100.00
42859;BME280;28505;56.970;40.998;2023-02-11T12:48:08;99439.63;;;-1.16;100.00
42859;BME280;28505;56.970;40.998;2023-02-11T12:53:49;99445.03;;;-1.11;100.00
42859;BME280;28505;56.970;40.998;2023-02-11T12:59:40;99443.75;;;-1.20;100.00
42859;BME280;28505;56.970;40.998;2023-02-11T13:05:30;99419.47;;;-1.40;100.00
42859;BME280;28505;56.970;40.998;2023-02-11T13:10:57;99440.25;;;-1.44;100.00
42859;BME280;28505;56.970;40.998;2023-02-11T13:16:42;99430.63;;;-1.50;100.00
42859;BME280;28505;56.970;40.998;2023-02-11T13:22:16;99429.69;;;-1.56;100.00
42859;BME280;28505;56.970;40.998;2023-02-11T13:28:13;99418.97;;;-1.61;100.00
42859;BME280;28505;56.970;40.998;2023-02-11T13:33:39;99411.72;;;-1.66;100.00
42859;BME280;28505;56.970;40.998;2023-02-11T13:39:21;99401.47;;;-1.74;100.00
42859;BME280;28505;56.970;40.998;2023-02-11T13:44:43;99401.00;;;-1.71;100.00
42859;BME280;28505;56.970;40.998;2023-02-11T13:50:06;99389.19;;;-1.80;100.00
42859;BME280;28505;56.970;40.998;2023-02-11T13:55:31;99358.13;;;-1.96;100.00
42859;BME280;28505;56.970;40.998;2023-02-11T14:00:54;99350.56;;;-1.93;100.00
42859;BME280;28505;56.970;40.998;2023-02-11T14:06:23;99351.72;;;-1.89;100.00
42859;BME280;28505;56.970;40.998;2023-02-11T14:12:25;99350.66;;;-1.88;100.00
42859;BME280;28505;56.970;40.998;2023-02-11T14:17:51;99314.59;;;-2.05;100.00
42859;BME280;28505;56.970;40.998;2023-02-11T14:23:22;99315.38;;;-2.05;100.00
42859;BME280;28505;56.970;40.998;2023-02-11T14:34:58;99302.19;;;-1.93;100.00
42859;BME280;28505;56.970;40.998;2023-02-11T14:46:08;99246.25;;;-2.02;100.00
42859;BME280;28505;56.970;40.998;2023-02-11T14:51:33;99229.94;;;-1.99;100.00
42859;BME280;28505;56.970;40.998;2023-02-11T14:57:18;99283.94;;;-1.95;100.00
42859;BME280;28505;56.970;40.998;2023-02-11T15:02:43;99230.19;;;-2.12;100.00
42859;BME280;28505;56.970;40.998;2023-02-11T15:08:13;99226.34;;;-2.16;100.00
42859;BME280;28505;56.970;40.998;2023-02-11T15:13:37;99247.41;;;-1.98;100.00
42859;BME280;28505;56.970;40.998;2023-02-11T15:19:05;99225.59;;;-2.05;100.00
42859;BME280;28505;56.970;40.998;2023-02-11T15:24:31;99201.78;;;-2.17;100.00
42859;BME280;28505;56.970;40.998;2023-02-11T15:29:54;99190.56;;;-2.12;100.00
42859;BME280;28505;56.970;40.998;2023-02-11T15:35:17;99196.28;;;-2.03;100.00
42859;BME280;28505;56.970;40.998;2023-02-11T15:40:39;99183.31;;;-2.05;100.00
42859;BME280;28505;56.970;40.998;2023-02-11T15:46:06;99190.56;;;-2.00;100.00
42859;BME280;28505;56.970;40.998;2023-02-11T15:51:35;99154.59;;;-2.13;100.00
42859;BME280;28505;56.970;40.998;2023-02-11T15:57:03;99173.91;;;-2.01;100.00
42859;BME280;28505;56.970;40.998;2023-02-11T16:02:31;99162.53;;;-2.01;100.00
42859;BME280;28505;56.970;40.998;2023-02-11T16:07:54;99156.22;;;-2.00;100.00
42859;BME280;28505;56.970;40.998;2023-02-11T16:13:18;99149.09;;;-2.00;100.00
42859;BME280;28505;56.970;40.998;2023-02-11T16:18:49;99132.78;;;-1.97;100.00
42859;BME280;28505;56.970;40.998;2023-02-11T16:24:27;99127.75;;;-1.98;100.00
42859;BME280;28505;56.970;40.998;2023-02-11T16:29:51;99115.00;;;-2.01;100.00
42859;BME280;28505;56.970;40.998;2023-02-11T16:35:14;99116.47;;;-1.94;100.00
42859;BME280;28505;56.970;40.998;2023-02-11T16:40:36;99110.19;;;-1.93;100.00
42859;BME280;28505;56.970;40.998;2023-02-11T16:45:58;99080.34;;;-2.05;100.00
42859;BME280;28505;56.970;40.998;2023-02-11T16:51:20;99107.88;;;-1.89;100.00
42859;BME280;28505;56.970;40.998;2023-02-11T16:56:43;99104.44;;;-1.90;100.00
42859;BME280;28505;56.970;40.998;2023-02-11T17:02:18;99071.38;;;-2.04;100.00
42859;BME280;28505;56.970;40.998;2023-02-11T17:07:44;99084.81;;;-2.05;100.00
42859;BME280;28505;56.970;40.998;2023-02-11T17:13:06;99084.22;;;-2.07;100.00
42859;BME280;28505;56.970;40.998;2023-02-11T17:18:28;99091.69;;;-2.16;100.00
42859;BME280;28505;56.970;40.998;2023-02-11T17:23:55;99066.25;;;-2.34;100.00
42859;BME280;28505;56.970;40.998;2023-02-11T17:29:20;99053.16;;;-2.41;100.00
42859;BME280;28505;56.970;40.998;2023-02-11T17:34:43;99054.22;;;-2.42;100.00
42859;BME280;28505;56.970;40.998;2023-02-11T17:40:06;99044.56;;;-2.48;100.00
42859;BME280;28505;56.970;40.998;2023-02-11T17:45:28;99036.06;;;-2.50;100.00
42859;BME280;28505;56.970;40.998;2023-02-11T17:50:50;99031.72;;;-2.44;100.00
42859;BME280;28505;56.970;40.998;2023-02-11T17:56:13;99031.72;;;-2.44;100.00
42859;BME280;28505;56.970;40.998;2023-02-11T18:01:37;99035.16;;;-2.44;100.00
42859;BME280;28505;56.970;40.998;2023-02-11T18:06:59;99018.72;;;-2.46;100.00
42859;BME280;28505;56.970;40.998;2023-02-11T18:12:22;98993.75;;;-2.55;100.00
42859;BME280;28505;56.970;40.998;2023-02-11T18:17:47;98984.44;;;-2.57;100.00
42859;BME280;28505;56.970;40.998;2023-02-11T18:23:09;98974.91;;;-2.59;100.00
42859;BME280;28505;56.970;40.998;2023-02-11T18:28:32;98969.28;;;-2.62;100.00
42859;BME280;28505;56.970;40.998;2023-02-11T18:33:54;98960.25;;;-2.66;100.00
42859;BME280;28505;56.970;40.998;2023-02-11T18:39:17;98948.31;;;-2.69;100.00
42859;BME280;28505;56.970;40.998;2023-02-11T18:44:39;98907.97;;;-2.93;100.00
42859;BME280;28505;56.970;40.998;2023-02-11T18:50:02;98938.69;;;-2.75;100.00
42859;BME280;28505;56.970;40.998;2023-02-11T18:55:24;98925.06;;;-2.84;100.00
42859;BME280;28505;56.970;40.998;2023-02-11T19:00:47;98909.56;;;-2.80;100.00
42859;BME280;28505;56.970;40.998;2023-02-11T19:06:21;98896.63;;;-2.93;100.00
42859;BME280;28505;56.970;40.998;2023-02-11T19:11:46;98890.56;;;-2.94;100.00
42859;BME280;28505;56.970;40.998;2023-02-11T19:17:08;98866.03;;;-3.06;100.00
42859;BME280;28505;56.970;40.998;2023-02-11T19:22:33;98866.72;;;-2.99;100.00
42859;BME280;28505;56.970;40.998;2023-02-11T19:27:55;98865.66;;;-2.98;100.00
42859;BME280;28505;56.970;40.998;2023-02-11T19:33:17;98870.59;;;-2.90;100.00
42859;BME280;28505;56.970;40.998;2023-02-11T19:38:39;98852.03;;;-2.95;100.00
42859;BME280;28505;56.970;40.998;2023-02-11T19:44:03;98841.72;;;-3.08;100.00
42859;BME280;28505;56.970;40.998;2023-02-11T19:49:26;98852.13;;;-2.90;100.00
42859;BME280;28505;56.970;40.998;2023-02-11T19:54:48;98847.44;;;-2.88;100.00
42859;BME280;28505;56.970;40.998;2023-02-11T20:00:10;98836.31;;;-2.90;100.00
42859;BME280;28505;56.970;40.998;2023-02-11T20:05:34;98795.78;;;-3.12;100.00
42859;BME280;28505;56.970;40.998;2023-02-11T20:11:08;98812.25;;;-2.93;100.00
42859;BME280;28505;56.970;40.998;2023-02-11T20:16:32;98815.94;;;-2.94;100.00
42859;BME280;28505;56.970;40.998;2023-02-11T20:22:08;98822.66;;;-2.87;100.00
42859;BME280;28505;56.970;40.998;2023-02-11T20:27:31;98814.50;;;-2.85;100.00
42859;BME280;28505;56.970;40.998;2023-02-11T20:32:54;98790.03;;;-2.97;100.00
42859;BME280;28505;56.970;40.998;2023-02-11T20:38:16;98797.88;;;-2.86;100.00
42859;BME280;28505;56.970;40.998;2023-02-11T20:43:39;98759.66;;;-3.00;100.00
42859;BME280;28505;56.970;40.998;2023-02-11T20:49:02;98783.66;;;-2.85;100.00
42859;BME280;28505;56.970;40.998;2023-02-11T20:54:25;98763.53;;;-2.91;100.00
42859;BME280;28505;56.970;40.998;2023-02-11T20:59:47;98771.50;;;-2.86;100.00
42859;BME280;28505;56.970;40.998;2023-02-11T21:05:10;98777.44;;;-2.78;100.00
42859;BME280;28505;56.970;40.998;2023-02-11T21:10:32;98774.25;;;-2.80;100.00
42859;BME280;28505;56.970;40.998;2023-02-11T21:15:55;98740.25;;;-2.94;100.00
42859;BME280;28505;56.970;40.998;2023-02-11T21:21:18;98742.66;;;-2.92;100.00
42859;BME280;28505;56.970;40.998;2023-02-11T21:26:41;98746.66;;;-2.90;100.00
42859;BME280;28505;56.970;40.998;2023-02-11T21:32:03;98742.66;;;-2.92;100.00
42859;BME280;28505;56.970;40.998;2023-02-11T21:37:25;98743.56;;;-2.87;100.00
42859;BME280;28505;56.970;40.998;2023-02-11T21:42:48;98748.44;;;-2.78;100.00
42859;BME280;28505;56.970;40.998;2023-02-11T21:48:11;98738.94;;;-2.79;100.00
42859;BME280;28505;56.970;40.998;2023-02-11T21:53:37;98724.38;;;-2.82;100.00
42859;BME280;28505;56.970;40.998;2023-02-11T21:59:00;98740.94;;;-2.70;100.00
42859;BME280;28505;56.970;40.998;2023-02-11T22:04:22;98722.75;;;-2.71;100.00
42859;BME280;28505;56.970;40.998;2023-02-11T22:09:44;98731.34;;;-2.76;100.00
42859;BME280;28505;56.970;40.998;2023-02-11T22:15:07;98734.88;;;-2.70;100.00
42859;BME280;28505;56.970;40.998;2023-02-11T22:20:29;98725.38;;;-2.71;100.00
42859;BME280;28505;56.970;40.998;2023-02-11T22:25:51;98717.22;;;-2.70;100.00
42859;BME280;28505;56.970;40.998;2023-02-11T22:31:16;98696.72;;;-2.79;100.00
42859;BME280;28505;56.970;40.998;2023-02-11T22:36:40;98719.59;;;-2.68;100.00
42859;BME280;28505;56.970;40.998;2023-02-11T22:42:02;98714.00;;;-2.72;100.00
42859;BME280;28505;56.970;40.998;2023-02-11T22:47:24;98700.47;;;-2.75;100.00
42859;BME280;28505;56.970;40.998;2023-02-11T22:52:46;98707.13;;;-2.73;100.00
42859;BME280;28505;56.970;40.998;2023-02-11T22:58:09;98699.53;;;-2.69;100.00
42859;BME280;28505;56.970;40.998;2023-02-11T23:03:32;98681.38;;;-2.83;100.00
42859;BME280;28505;56.970;40.998;2023-02-11T23:08:55;98691.78;;;-2.76;100.00
42859;BME280;28505;56.970;40.998;2023-02-11T23:14:17;98686.28;;;-2.74;100.00
42859;BME280;28505;56.970;40.998;2023-02-11T23:19:39;98669.25;;;-2.84;100.00
42859;BME280;28505;56.970;40.998;2023-02-11T23:25:01;98667.63;;;-2.85;100.00
42859;BME280;28505;56.970;40.998;2023-02-11T23:30:24;98683.38;;;-2.73;100.00
42859;BME280;28505;56.970;40.998;2023-02-11T23:35:46;98691.16;;;-2.66;100.00
42859;BME280;28505;56.970;40.998;2023-02-11T23:41:08;98677.00;;;-2.77;100.00
42859;BME280;28505;56.970;40.998;2023-02-11T23:46:31;98692.75;;;-2.65;100.00
42859;BME280;28505;56.970;40.998;2023-02-11T23:51:52;98677.06;;;-2.72;100.00
42859;BME280;28505;56.970;40.998;2023-02-11T23:57:18;98682.66;;;-2.68;100.00
